Mechanicsville, Virginia
Current Conditions -  °F | °C
As of 2:54 PM on Friday 21 Nov 2014 (Local Time) from KOFP Reporting Station
Clear Clear  
Wind Chill: 35°   Ceiling: Unl
Heat Index: 41°   Visibility: 10mi
Dew Point:   Wind: 9mph
Humidity: 26%   Direction: 260°W
Pressure: 30.48"   Gusts: NA
Location:  37.61°N, 77.38°W
Report Text: KOFP 211954Z AUTO 26008KT 10SM CLR 05/M13 A3048 RMK AO2 SLP322 T00501133
Loading
Personal Weather Stations






























Interactive Weather Map New forecast layout! Learn more

10-Day Weather Forecast

Advertisements
Track Severe Weather on mobile